Time;durP1;ratioP1;P1;durP2;ratioP2;P2;SDS_P1;SDS_P2;PMS_P1;PMS_P2;Temp;Humidity;BMP_temperature;BMP_pressure;BME280_temperature;BME280_humidity;BME280_pressure;Samples;Min_cycle;Max_cycle;Signal;HPM_P1;HPM_P2
2021/06/04 00:00:30;;;;;;;21.90;15.95;;;24.00;69.00;;;;;;5067262;28;20067;-63
2021/06/04 00:03:07;;;;;;;20.23;14.48;;;23.90;69.20;;;;;;5066294;28;20044;-63
2021/06/04 00:05:37;;;;;;;19.88;15.30;;;23.90;69.20;;;;;;5066398;28;20028;-63
2021/06/04 00:08:03;;;;;;;19.60;14.52;;;23.80;69.00;;;;;;5061702;28;20032;-63
2021/06/04 00:10:38;;;;;;;536.40;21.70;;;23.80;69.00;;;;;;5055798;28;20029;-64
2021/06/04 00:13:22;;;;;;;233.45;17.98;;;23.70;69.20;;;;;;5070802;28;20487;-63
2021/06/04 00:15:51;;;;;;;19.70;12.38;;;23.70;69.30;;;;;;5060817;28;20040;-63
2021/06/04 00:18:17;;;;;;;20.98;11.63;;;23.70;69.50;;;;;;5062867;28;20392;-63
2021/06/04 00:20:43;;;;;;;13.65;11.85;;;23.70;69.70;;;;;;5071922;28;20112;-63
2021/06/04 00:23:09;;;;;;;23.80;11.68;;;23.60;69.60;;;;;;5061601;28;20040;-63
2021/06/04 00:25:37;;;;;;;12.65;10.48;;;23.60;69.80;;;;;;5060488;28;20029;-63
2021/06/04 00:28:03;;;;;;;14.25;11.20;;;23.60;69.50;;;;;;5070418;28;20052;-63
2021/06/04 00:30:28;;;;;;;17.33;10.68;;;23.60;69.10;;;;;;5069960;28;20107;-63
2021/06/04 00:32:55;;;;;;;13.55;10.57;;;23.50;69.00;;;;;;5064721;28;20465;-63
2021/06/04 00:35:23;;;;;;;16.33;11.80;;;23.50;68.60;;;;;;5066682;28;20032;-64
2021/06/04 00:37:49;;;;;;;16.33;12.55;;;23.40;68.30;;;;;;5061254;28;20551;-63
2021/06/04 00:40:27;;;;;;;532.20;17.95;;;23.40;68.40;;;;;;5069821;28;20120;-63
2021/06/04 00:42:54;;;;;;;278.50;17.27;;;23.40;68.40;;;;;;5062215;28;20382;-63
2021/06/04 00:45:28;;;;;;;26.73;14.57;;;23.30;68.40;;;;;;5064440;28;20025;-63
2021/06/04 00:47:54;;;;;;;16.40;13.73;;;23.30;68.30;;;;;;5065694;28;20078;-63
2021/06/04 00:50:41;;;;;;;14.63;12.18;;;23.30;68.40;;;;;;5068400;28;20124;-63
2021/06/04 00:53:08;;;;;;;15.48;13.18;;;23.20;68.40;;;;;;5065786;28;20033;-63
2021/06/04 00:55:36;;;;;;;14.57;12.25;;;23.20;68.50;;;;;;5081084;28;20059;-63
2021/06/04 00:58:02;;;;;;;14.32;11.90;;;23.20;69.00;;;;;;5071786;28;20041;-63
2021/06/04 01:00:39;;;;;;;13.95;11.07;;;23.20;69.40;;;;;;5071553;28;20032;-63
2021/06/04 01:03:08;;;;;;;12.20;10.07;;;23.20;69.80;;;;;;5057557;28;20052;-63
2021/06/04 01:05:38;;;;;;;15.73;11.60;;;23.10;70.00;;;;;;5055924;28;20099;-63
2021/06/04 01:08:20;;;;;;;13.50;11.30;;;23.10;70.20;;;;;;5060855;28;20025;-63
2021/06/04 01:10:58;;;;;;;;;;;23.10;70.20;;;;;;5053601;28;20052;-63
2021/06/04 01:13:38;;;;;;;15.57;11.63;;;23.00;70.00;;;;;;5066990;28;19908;-63
2021/06/04 01:16:30;;;;;;;17.40;12.77;;;23.00;70.20;;;;;;5058180;28;20045;-63
2021/06/04 01:19:01;;;;;;;22.50;13.32;;;23.00;70.40;;;;;;5068864;28;20043;-63
2021/06/04 01:21:41;;;;;;;22.25;13.77;;;23.00;70.70;;;;;;5063870;28;20400;-63
2021/06/04 01:24:30;;;;;;;36.47;15.15;;;22.90;70.80;;;;;;5071030;28;20467;-63
2021/06/04 01:27:23;;;;;;;64.18;16.95;;;22.90;71.10;;;;;;5068517;28;20515;-63
2021/06/04 01:29:59;;;;;;;25.77;15.18;;;22.90;71.30;;;;;;5071824;28;20020;-63
2021/06/04 01:32:30;;;;;;;49.47;17.20;;;22.90;71.80;;;;;;5069915;28;20361;-63
2021/06/04 01:35:04;;;;;;;90.90;17.13;;;22.90;72.20;;;;;;5069158;28;20020;-63
2021/06/04 01:37:31;;;;;;;152.00;16.70;;;22.90;72.50;;;;;;5068002;28;21017;-63
2021/06/04 01:40:09;;;;;;;170.68;15.70;;;22.80;72.70;;;;;;5054822;28;20036;-63
2021/06/04 01:42:42;;;;;;;276.33;17.33;;;22.80;73.10;;;;;;5070070;28;20056;-63
2021/06/04 01:45:15;;;;;;;354.88;14.73;;;22.90;73.40;;;;;;5072784;28;20479;-63
2021/06/04 01:47:47;;;;;;;529.05;16.83;;;22.80;73.70;;;;;;5069754;28;20484;-63
2021/06/04 01:50:31;;;;;;;277.63;14.20;;;22.80;74.00;;;;;;5079027;28;20036;-63
2021/06/04 01:53:03;;;;;;;302.65;13.85;;;22.90;74.30;;;;;;5072892;28;20389;-63
2021/06/04 01:55:36;;;;;;;416.77;14.98;;;22.80;74.60;;;;;;5063525;28;20442;-63
2021/06/04 01:58:10;;;;;;;311.58;13.43;;;22.80;75.10;;;;;;5072460;28;20051;-63
2021/06/04 02:00:44;;;;;;;131.02;11.05;;;22.80;75.30;;;;;;5067469;28;20107;-63
2021/06/04 02:03:15;;;;;;;125.43;10.10;;;22.80;75.20;;;;;;5064967;28;20028;-63
2021/06/04 02:05:56;;;;;;;114.82;9.90;;;22.80;74.90;;;;;;5063962;28;20028;-63
2021/06/04 02:08:36;;;;;;;313.20;11.85;;;22.70;74.80;;;;;;5071918;28;20029;-63
2021/06/04 02:11:07;;;;;;;146.05;10.70;;;22.70;74.80;;;;;;5066841;28;20082;-63
2021/06/04 02:13:33;;;;;;;256.70;10.68;;;22.70;75.00;;;;;;5073946;28;20460;-63
2021/06/04 02:16:25;;;;;;;109.28;9.77;;;22.70;75.00;;;;;;5066727;28;20049;-63
2021/06/04 02:19:04;;;;;;;152.35;10.32;;;22.70;75.00;;;;;;5069104;28;20024;-63
2021/06/04 02:21:54;;;;;;;355.77;13.38;;;22.70;75.10;;;;;;5072118;28;20046;-63
2021/06/04 02:24:28;;;;;;;167.85;11.82;;;22.70;75.30;;;;;;5063242;28;20050;-63
2021/06/04 02:27:14;;;;;;;197.10;12.18;;;22.60;75.60;;;;;;5061694;28;20020;-63
2021/06/04 02:30:19;;;;;;;109.05;10.52;;;22.70;75.90;;;;;;5066699;28;20507;-63
2021/06/04 02:32:54;;;;;;;147.82;11.23;;;22.70;76.00;;;;;;5045092;28;20039;-63
2021/06/04 02:35:31;;;;;;;165.80;11.88;;;22.60;76.10;;;;;;5071412;28;20414;-63
2021/06/04 02:38:12;;;;;;;189.90;10.73;;;22.60;76.20;;;;;;5063616;28;20067;-63
2021/06/04 02:40:56;;;;;;;93.95;10.30;;;22.60;76.30;;;;;;5055380;28;20029;-63
2021/06/04 02:43:42;;;;;;;83.47;10.25;;;22.60;76.50;;;;;;5070268;28;20065;-63
2021/06/04 02:46:29;;;;;;;145.60;11.45;;;22.50;76.50;;;;;;5058615;28;20396;-63
2021/06/04 02:48:55;;;;;;;109.75;11.15;;;22.60;76.70;;;;;;5062247;28;20048;-63
2021/06/04 02:51:41;;;;;;;88.00;12.30;;;22.50;76.80;;;;;;5073739;28;20021;-63
2021/06/04 02:54:12;;;;;;;91.30;13.23;;;22.60;76.90;;;;;;5067777;28;20082;-63
2021/06/04 02:56:42;;;;;;;92.95;13.68;;;22.50;77.00;;;;;;5057776;28;20032;-63
2021/06/04 02:59:13;;;;;;;151.45;15.32;;;22.50;77.00;;;;;;5056140;28;20400;-63
2021/06/04 03:01:44;;;;;;;86.90;14.10;;;22.50;77.20;;;;;;5070251;28;20020;-63
2021/06/04 03:04:12;;;;;;;85.07;14.77;;;22.50;77.30;;;;;;5057541;28;20488;-63
2021/06/04 03:06:58;;;;;;;110.57;16.23;;;22.50;77.40;;;;;;5065078;28;20028;-63
2021/06/04 03:09:35;;;;;;;188.88;16.92;;;22.50;77.40;;;;;;5052592;28;20029;-63
2021/06/04 03:12:09;;;;;;;136.43;16.65;;;22.50;77.50;;;;;;5052908;28;20048;-63
2021/06/04 03:14:35;;;;;;;87.50;17.42;;;22.40;77.40;;;;;;5065340;28;20017;-63
2021/06/04 03:17:02;;;;;;;281.52;19.02;;;22.40;77.40;;;;;;5061116;28;20082;-63
2021/06/04 03:19:29;;;;;;;193.00;19.35;;;22.40;77.60;;;;;;5072218;28;20032;-63
2021/06/04 03:21:59;;;;;;;124.63;19.30;;;22.40;77.70;;;;;;5070516;28;20498;-63
2021/06/04 03:24:31;;;;;;;;;;;22.40;77.90;;;;;;5072078;28;20055;-63
2021/06/04 03:26:59;;;;;;;375.55;21.73;;;22.40;77.20;;;;;;5057433;28;20284;-63
2021/06/04 03:29:25;;;;;;;348.25;22.52;;;22.30;77.30;;;;;;5071106;28;20036;-63
2021/06/04 03:31:59;;;;;;;266.70;20.80;;;22.30;77.70;;;;;;5068043;28;20025;-63
2021/06/04 03:34:28;;;;;;;223.50;21.13;;;22.30;78.10;;;;;;5063741;28;20056;-63
2021/06/04 03:36:57;;;;;;;227.35;19.70;;;22.30;78.20;;;;;;5066906;28;20037;-63
2021/06/04 03:39:32;;;;;;;134.70;20.38;;;22.30;78.20;;;;;;5051673;28;20032;-63
2021/06/04 03:42:00;;;;;;;198.65;20.60;;;22.30;78.50;;;;;;5064334;28;20036;-63
2021/06/04 03:44:30;;;;;;;328.98;21.98;;;22.30;78.60;;;;;;5067714;28;20059;-63
2021/06/04 03:46:57;;;;;;;425.40;22.95;;;22.30;78.70;;;;;;5064220;28;20032;-63
2021/06/04 03:49:24;;;;;;;282.80;20.90;;;22.30;78.60;;;;;;5063838;28;20104;-63
2021/06/04 03:51:55;;;;;;;195.75;21.13;;;22.30;78.70;;;;;;5053767;28;20021;-63
2021/06/04 03:54:27;;;;;;;180.40;20.17;;;22.30;78.90;;;;;;5069498;28;20031;-63
2021/06/04 03:56:54;;;;;;;243.48;20.58;;;22.30;79.00;;;;;;5070505;28;20040;-63
2021/06/04 03:59:20;;;;;;;245.20;20.65;;;22.30;79.10;;;;;;5068199;28;20029;-63
2021/06/04 04:01:53;;;;;;;205.50;19.25;;;22.30;79.00;;;;;;5068454;28;20040;-63
2021/06/04 04:04:20;;;;;;;265.63;18.95;;;22.30;79.10;;;;;;5067419;28;20514;-63
2021/06/04 04:06:46;;;;;;;316.52;19.90;;;22.20;78.90;;;;;;5072070;28;20074;-63
2021/06/04 04:09:13;;;;;;;287.98;20.00;;;22.20;78.80;;;;;;5066996;28;20103;-63
2021/06/04 04:11:40;;;;;;;190.57;20.15;;;22.30;78.90;;;;;;5056703;28;20033;-63
2021/06/04 04:14:07;;;;;;;226.90;17.48;;;22.20;79.10;;;;;;5063997;28;20495;-63
2021/06/04 04:16:34;;;;;;;276.33;18.65;;;22.20;78.70;;;;;;5054099;28;20033;-63
2021/06/04 04:19:01;;;;;;;191.38;17.35;;;22.20;78.90;;;;;;5056070;28;20043;-63
2021/06/04 04:21:27;;;;;;;265.40;18.63;;;22.20;79.00;;;;;;5059242;28;20033;-63
2021/06/04 04:24:02;;;;;;;267.23;18.58;;;22.20;79.30;;;;;;5062979;28;20048;-63
2021/06/04 04:26:34;;;;;;;223.20;17.17;;;22.20;79.30;;;;;;5061606;28;20035;-63
2021/06/04 04:29:00;;;;;;;235.52;18.77;;;22.20;79.90;;;;;;5056397;28;20040;-63
2021/06/04 04:31:29;;;;;;;238.25;18.35;;;22.20;79.30;;;;;;5054813;28;20031;-63
2021/06/04 04:33:56;;;;;;;177.02;16.13;;;22.10;79.10;;;;;;5072065;28;20496;-63
2021/06/04 04:36:34;;;;;;;100.95;15.85;;;22.20;79.10;;;;;;5060417;28;20453;-63
2021/06/04 04:39:00;;;;;;;139.85;16.30;;;22.10;79.20;;;;;;5054267;28;20462;-63
2021/06/04 04:41:28;;;;;;;109.60;15.40;;;22.10;79.30;;;;;;5062150;28;20064;-64
2021/06/04 04:43:55;;;;;;;124.57;14.68;;;22.20;79.30;;;;;;5064497;28;20491;-66
2021/06/04 04:46:24;;;;;;;112.90;15.10;;;22.10;79.30;;;;;;5051160;28;20028;-66
2021/06/04 04:48:50;;;;;;;158.43;15.05;;;22.10;79.30;;;;;;5051747;28;20033;-66
2021/06/04 04:51:17;;;;;;;73.63;14.18;;;22.10;79.10;;;;;;5059612;28;20107;-66
2021/06/04 04:53:43;;;;;;;69.57;14.27;;;22.10;79.20;;;;;;5059379;28;20029;-63
2021/06/04 04:56:10;;;;;;;89.80;13.10;;;22.10;79.00;;;;;;5064527;28;20028;-63
2021/06/04 04:58:36;;;;;;;54.90;13.65;;;22.10;79.00;;;;;;5061430;28;20036;-63
2021/06/04 05:01:06;;;;;;;75.93;12.52;;;22.10;79.10;;;;;;5063278;28;20086;-62
2021/06/04 05:03:31;;;;;;;122.85;14.68;;;22.20;79.10;;;;;;5064656;28;20036;-63
2021/06/04 05:05:57;;;;;;;44.45;12.52;;;22.10;78.90;;;;;;5057251;28;20423;-62
2021/06/04 05:08:23;;;;;;;141.98;13.20;;;22.10;78.70;;;;;;5060600;28;20805;-64
2021/06/04 05:10:48;;;;;;;155.68;15.27;;;22.10;78.80;;;;;;5061957;28;20111;-64
2021/06/04 05:13:15;;;;;;;103.97;15.02;;;22.10;78.70;;;;;;5058071;28;20031;-64
2021/06/04 05:15:42;;;;;;;94.50;14.02;;;22.10;78.70;;;;;;5056269;28;20127;-62
2021/06/04 05:18:11;;;;;;;56.75;15.10;;;22.10;78.80;;;;;;5059700;28;20055;-62
2021/06/04 05:20:37;;;;;;;92.93;14.18;;;22.10;79.20;;;;;;5065304;28;20033;-62
2021/06/04 05:23:04;;;;;;;144.63;15.38;;;22.20;79.00;;;;;;5061382;28;20044;-62
2021/06/04 05:25:34;;;;;;;74.60;14.65;;;22.20;79.00;;;;;;5070581;28;20460;-62
2021/06/04 05:28:01;;;;;;;32.53;16.98;;;22.20;79.00;;;;;;5065630;28;20060;-62
2021/06/04 05:30:39;;;;;;;29.85;14.75;;;22.20;78.90;;;;;;5065533;28;20033;-65
2021/06/04 05:33:07;;;;;;;37.45;16.50;;;22.20;78.70;;;;;;5073580;28;20032;-67
2021/06/04 05:35:33;;;;;;;35.22;16.63;;;22.20;78.60;;;;;;5068042;28;20021;-67
2021/06/04 05:37:59;;;;;;;45.72;16.60;;;22.20;78.50;;;;;;5066614;28;20033;-64
2021/06/04 05:40:29;;;;;;;30.88;16.67;;;22.20;78.40;;;;;;5071252;28;20009;-66
2021/06/04 05:43:00;;;;;;;27.60;15.02;;;22.20;78.30;;;;;;5066738;28;20028;-75
2021/06/04 05:45:29;;;;;;;24.90;16.15;;;22.20;77.80;;;;;;5060954;28;20523;-65
2021/06/04 05:47:55;;;;;;;23.48;15.50;;;22.20;78.00;;;;;;5058337;28;20062;-65
2021/06/04 05:50:26;;;;;;;22.75;14.32;;;22.20;77.60;;;;;;5057350;28;20032;-65
2021/06/04 05:52:52;;;;;;;32.03;14.75;;;22.20;77.60;;;;;;5056528;28;20040;-65
2021/06/04 05:55:22;;;;;;;40.17;15.82;;;22.20;77.20;;;;;;5055411;28;20037;-65
2021/06/04 05:57:48;;;;;;;49.45;16.42;;;22.20;77.40;;;;;;5064226;28;20044;-64
2021/06/04 06:00:41;;;;;;;23.27;15.65;;;22.20;77.70;;;;;;5069981;28;20112;-64
2021/06/04 06:03:07;;;;;;;29.83;16.10;;;22.20;77.90;;;;;;5061091;28;20032;-64
2021/06/04 06:05:33;;;;;;;23.85;15.68;;;22.30;77.30;;;;;;5066580;28;20020;-64
2021/06/04 06:07:59;;;;;;;26.70;18.25;;;22.30;77.50;;;;;;5067897;28;20036;-68
2021/06/04 06:10:25;;;;;;;32.67;17.92;;;22.30;77.70;;;;;;5068114;28;20633;-65
2021/06/04 06:12:52;;;;;;;28.80;17.58;;;22.30;77.80;;;;;;5059583;28;20074;-64
2021/06/04 06:15:20;;;;;;;29.70;15.02;;;22.40;78.00;;;;;;5065514;28;20393;-64
2021/06/04 06:17:46;;;;;;;28.70;17.83;;;22.40;77.70;;;;;;5068042;28;20033;-70
2021/06/04 06:20:15;;;;;;;31.27;19.27;;;22.30;77.40;;;;;;5060727;28;20048;-66
2021/06/04 06:22:41;;;;;;;30.02;18.75;;;22.40;77.90;;;;;;5067499;28;20123;-65
2021/06/04 06:25:09;;;;;;;29.42;17.92;;;22.40;78.30;;;;;;5052913;28;20086;-64
2021/06/04 06:27:35;;;;;;;30.35;16.67;;;22.40;78.60;;;;;;5064216;28;20068;-64
2021/06/04 06:30:01;;;;;;;33.92;20.52;;;22.40;77.20;;;;;;5072215;28;20067;-64
2021/06/04 06:32:26;;;;;;;30.27;18.83;;;22.40;77.70;;;;;;5072992;28;20064;-64
2021/06/04 06:34:52;;;;;;;29.85;17.85;;;22.50;78.00;;;;;;5069837;28;20029;-66
2021/06/04 06:37:18;;;;;;;30.23;16.77;;;22.50;78.10;;;;;;5058748;28;20094;-65
2021/06/04 06:39:43;;;;;;;33.90;18.52;;;22.50;78.00;;;;;;5088853;28;20365;-65
2021/06/04 06:42:10;;;;;;;34.58;20.50;;;22.50;78.10;;;;;;5069807;28;20033;-64
2021/06/04 06:44:36;;;;;;;36.72;20.50;;;22.50;78.10;;;;;;5052356;28;20029;-64
2021/06/04 06:47:03;;;;;;;35.70;20.05;;;22.50;78.30;;;;;;5065361;28;20065;-64
2021/06/04 06:49:29;;;;;;;35.53;18.85;;;22.60;78.60;;;;;;5069874;28;20441;-64
2021/06/04 06:51:55;;;;;;;32.47;19.10;;;22.60;78.30;;;;;;5071405;28;20036;-64
2021/06/04 06:54:24;;;;;;;39.17;20.45;;;22.60;76.30;;;;;;5067181;28;20033;-64
2021/06/04 06:56:53;;;;;;;37.53;21.55;;;22.60;76.70;;;;;;5068097;28;20036;-64
2021/06/04 06:59:22;;;;;;;32.33;18.92;;;22.60;77.40;;;;;;5070787;28;20571;-64
2021/06/04 07:01:48;;;;;;;34.65;19.67;;;22.60;76.50;;;;;;5069323;28;20021;-64
2021/06/04 07:04:13;;;;;;;35.40;21.63;;;22.60;75.30;;;;;;5066496;28;20362;-64
2021/06/04 07:06:41;;;;;;;34.65;21.05;;;22.60;76.50;;;;;;5069160;28;20083;-64
2021/06/04 07:09:11;;;;;;;37.72;20.92;;;22.60;76.90;;;;;;5070572;28;20037;-64
2021/06/04 07:11:40;;;;;;;37.33;21.63;;;22.60;76.40;;;;;;5061104;28;20024;-64
2021/06/04 07:14:08;;;;;;;37.15;21.20;;;22.60;75.00;;;;;;5070929;28;20063;-64
2021/06/04 07:16:35;;;;;;;30.27;16.83;;;22.60;74.40;;;;;;5071094;28;20110;-64
2021/06/04 07:19:02;;;;;;;28.23;15.40;;;22.60;74.80;;;;;;5073094;28;20124;-64
2021/06/04 07:21:28;;;;;;;29.70;17.40;;;22.70;74.60;;;;;;5068852;28;20078;-65
2021/06/04 07:23:55;;;;;;;28.98;17.33;;;22.60;74.30;;;;;;5071979;28;20032;-65
2021/06/04 07:26:21;;;;;;;31.25;14.23;;;22.60;74.80;;;;;;5069559;28;20037;-64
2021/06/04 07:28:48;;;;;;;32.88;16.67;;;22.60;74.10;;;;;;5064601;28;20033;-64
2021/06/04 07:31:16;;;;;;;30.05;16.67;;;22.70;74.20;;;;;;5066016;28;20423;-65
2021/06/04 07:33:54;;;;;;;31.02;18.60;;;22.70;74.80;;;;;;5070433;28;20052;-64
2021/06/04 07:36:29;;;;;;;33.97;19.00;;;22.70;74.20;;;;;;5060575;28;20472;-66
2021/06/04 07:38:56;;;;;;;34.55;18.73;;;22.70;74.50;;;;;;5052034;28;20033;-65
2021/06/04 07:41:23;;;;;;;25.70;14.30;;;22.80;74.60;;;;;;5059785;28;20039;-65
2021/06/04 07:43:50;;;;;;;30.27;18.55;;;22.80;74.00;;;;;;5057593;28;20063;-65
2021/06/04 07:46:20;;;;;;;33.80;19.77;;;22.80;74.20;;;;;;5066827;28;20033;-65
2021/06/04 07:48:46;;;;;;;30.00;16.60;;;22.90;74.60;;;;;;5054573;28;20408;-65
2021/06/04 07:51:15;;;;;;;35.70;20.50;;;22.80;74.00;;;;;;5072746;28;20040;-65
2021/06/04 07:53:41;;;;;;;26.98;14.85;;;22.80;75.30;;;;;;5069481;28;20043;-65
2021/06/04 07:56:09;;;;;;;31.92;15.30;;;22.80;74.00;;;;;;5069656;28;20476;-65
2021/06/04 07:58:34;;;;;;;28.23;14.75;;;22.80;74.00;;;;;;5071424;28;20037;-65
2021/06/04 08:01:03;;;;;;;34.20;18.38;;;22.80;74.20;;;;;;5064731;28;20389;-65
2021/06/04 08:03:29;;;;;;;36.58;19.33;;;22.90;74.40;;;;;;5067926;28;20033;-65
2021/06/04 08:05:55;;;;;;;31.55;17.40;;;22.80;74.60;;;;;;5067216;28;20037;-65
2021/06/04 08:08:22;;;;;;;31.63;18.33;;;22.90;74.60;;;;;;5071272;28;20039;-65
2021/06/04 08:10:49;;;;;;;34.33;17.05;;;22.90;74.60;;;;;;5069432;28;20033;-65
2021/06/04 08:13:19;;;;;;;31.38;15.35;;;23.00;74.30;;;;;;5069860;28;20081;-65
2021/06/04 08:15:49;;;;;;;29.75;14.55;;;23.00;74.20;;;;;;5066580;28;20056;-65
2021/06/04 08:18:15;;;;;;;35.00;17.88;;;23.00;74.10;;;;;;5068938;28;20072;-64
2021/06/04 08:20:42;;;;;;;33.53;19.98;;;23.00;74.30;;;;;;5070322;28;20079;-64
2021/06/04 08:23:15;;;;;;;33.75;19.27;;;23.10;74.90;;;;;;5068751;28;20143;-63
2021/06/04 08:25:45;;;;;;;31.63;16.38;;;23.10;74.90;;;;;;5076630;28;20032;-64
2021/06/04 08:28:11;;;;;;;34.42;16.65;;;23.10;74.00;;;;;;5074995;28;20028;-64
2021/06/04 08:30:39;;;;;;;32.17;18.48;;;23.10;74.00;;;;;;5077960;28;20025;-64
2021/06/04 08:33:05;;;;;;;43.72;19.45;;;23.20;75.10;;;;;;5076062;28;20487;-64
2021/06/04 08:35:31;;;;;;;32.17;15.95;;;23.20;75.30;;;;;;5063089;28;20021;-66
2021/06/04 08:37:59;;;;;;;30.63;16.33;;;23.20;74.40;;;;;;5070293;28;20036;-66
2021/06/04 08:40:33;;;;;;;26.90;15.88;;;23.30;73.70;;;;;;5067143;28;20025;-67
2021/06/04 08:43:34;;;;;;;33.00;17.67;;;23.20;73.40;;;;;;5071531;28;20120;-63
2021/06/04 08:46:20;;;;;;;32.25;18.20;;;23.20;73.30;;;;;;5069725;28;20045;-63
2021/06/04 08:49:18;;;;;;;23.20;12.43;;;23.30;74.40;;;;;;5065921;28;20473;-64
2021/06/04 08:52:26;;;;;;;35.58;19.67;;;23.40;73.60;;;;;;5069055;28;20377;-63
2021/06/04 08:55:13;;;;;;;29.40;16.58;;;23.30;73.70;;;;;;5020354;28;20126;-63
2021/06/04 08:57:52;;;;;;;34.75;19.58;;;23.30;73.50;;;;;;5068917;28;20082;-63
2021/06/04 09:00:31;;;;;;;36.25;21.00;;;23.30;73.60;;;;;;5069098;28;20048;-63
2021/06/04 09:03:02;;;;;;;31.75;17.80;;;23.30;73.90;;;;;;5067658;28;20423;-63
2021/06/04 09:05:57;;;;;;;30.35;19.10;;;23.40;73.70;;;;;;5063217;28;20055;-63
2021/06/04 09:08:29;;;;;;;35.55;20.10;;;23.40;73.80;;;;;;5068025;28;20043;-61
2021/06/04 09:11:03;;;;;;;33.70;18.27;;;23.40;74.30;;;;;;5068583;28;20024;-63
2021/06/04 09:13:36;;;;;;;30.98;18.40;;;23.40;73.90;;;;;;5072172;28;20031;-64
2021/06/04 09:16:37;;;;;;;32.58;20.38;;;23.50;73.90;;;;;;5071211;28;20040;-63
2021/06/04 09:19:16;;;;;;;34.75;19.25;;;23.50;73.70;;;;;;5013465;28;20485;-63
2021/06/04 09:21:44;;;;;;;37.25;19.88;;;23.50;73.70;;;;;;5066672;28;20072;-63
2021/06/04 09:24:18;;;;;;;32.45;16.48;;;23.60;73.40;;;;;;5061639;28;20484;-64
2021/06/04 09:26:44;;;;;;;32.28;15.07;;;23.60;73.50;;;;;;5066149;28;20529;-63
2021/06/04 09:29:14;;;;;;;31.55;16.23;;;23.70;73.20;;;;;;5069497;28;20041;-63
2021/06/04 09:31:44;;;;;;;35.35;20.33;;;23.70;73.10;;;;;;5071451;28;20052;-64
2021/06/04 09:34:15;;;;;;;43.95;23.33;;;23.70;73.00;;;;;;5076735;28;20454;-62
2021/06/04 09:36:46;;;;;;;31.65;20.48;;;23.70;72.50;;;;;;5061465;28;20036;-62
2021/06/04 09:39:23;;;;;;;28.88;17.35;;;23.70;72.70;;;;;;5067196;28;20441;-62
2021/06/04 09:41:50;;;;;;;31.75;17.98;;;23.70;72.50;;;;;;5055149;28;20059;-62
2021/06/04 09:44:21;;;;;;;35.00;16.63;;;23.80;72.70;;;;;;5063918;28;20445;-62
2021/06/04 09:47:11;;;;;;;27.42;18.23;;;23.80;73.10;;;;;;5058691;28;20036;-63
2021/06/04 09:49:43;;;;;;;32.15;18.15;;;23.80;72.40;;;;;;5061699;28;20036;-65
2021/06/04 09:52:27;;;;;;;30.15;16.67;;;23.90;72.40;;;;;;5071806;28;20133;-64
2021/06/04 09:55:14;;;;;;;26.02;15.48;;;23.90;72.50;;;;;;5067483;28;20495;-63
2021/06/04 09:58:14;;;;;;;33.63;15.70;;;24.00;72.30;;;;;;5067236;28;20032;-62
2021/06/04 10:01:09;;;;;;;32.85;20.60;;;24.00;72.20;;;;;;5071726;28;20039;-61
2021/06/04 10:03:40;;;;;;;31.60;18.88;;;24.00;71.80;;;;;;5061485;28;20036;-62
2021/06/04 10:06:12;;;;;;;30.50;15.52;;;24.00;70.90;;;;;;5069373;28;20533;-62
2021/06/04 10:08:44;;;;;;;19.17;11.27;;;24.00;71.30;;;;;;5072047;28;20025;-62
2021/06/04 10:11:22;;;;;;;23.55;13.70;;;24.10;71.50;;;;;;5056061;28;20059;-62
2021/06/04 10:13:59;;;;;;;31.55;18.13;;;24.10;71.20;;;;;;5054508;28;20473;-63
2021/06/04 10:19:25;;;;;;;29.75;17.73;;;24.10;71.20;;;;;;5053325;28;20136;-64
2021/06/04 10:22:35;;;;;;;31.00;18.60;;;24.10;71.30;;;;;;5071214;28;20020;-64
2021/06/04 10:25:01;;;;;;;31.20;18.05;;;24.20;71.50;;;;;;5061284;28;20028;-64
2021/06/04 10:27:32;;;;;;;41.38;21.20;;;24.20;72.20;;;;;;5073749;28;20029;-63
2021/06/04 10:30:00;;;;;;;29.67;16.63;;;24.30;72.10;;;;;;5070408;28;20039;-63
2021/06/04 10:32:33;;;;;;;40.13;21.00;;;24.20;72.40;;;;;;5070472;28;20487;-63
2021/06/04 10:35:05;;;;;;;40.55;21.25;;;24.30;72.30;;;;;;5061307;28;20033;-63
2021/06/04 10:38:07;;;;;;;35.72;17.85;;;24.30;71.80;;;;;;5054866;28;20178;-63
2021/06/04 10:40:51;;;;;;;36.83;19.63;;;24.40;72.00;;;;;;5042068;28;20033;-70
2021/06/04 10:43:43;;;;;;;37.20;18.88;;;24.40;71.70;;;;;;5063098;28;20032;-63
2021/06/04 10:46:32;;;;;;;30.27;17.00;;;24.40;71.70;;;;;;5064584;28;20041;-63
2021/06/04 10:49:09;;;;;;;38.67;19.92;;;24.40;72.00;;;;;;5056560;28;20103;-64
2021/06/04 10:52:03;;;;;;;39.17;20.13;;;24.40;71.60;;;;;;5060504;28;20074;-63
2021/06/04 10:54:55;;;;;;;;;;;24.50;71.70;;;;;;5067114;28;20036;-62
2021/06/04 10:57:33;;;;;;;35.50;20.67;;;24.50;71.40;;;;;;5035999;28;19983;-63
2021/06/04 11:00:21;;;;;;;37.05;23.20;;;24.60;71.50;;;;;;5069188;28;20051;-63
2021/06/04 11:03:11;;;;;;;37.45;19.60;;;24.60;71.40;;;;;;5068689;28;20539;-62
2021/06/04 11:06:03;;;;;;;41.00;22.58;;;24.70;72.00;;;;;;5065705;28;20029;-63
2021/06/04 11:08:51;;;;;;;38.47;23.35;;;24.70;71.50;;;;;;5060846;28;20037;-63
2021/06/04 11:11:45;;;;;;;37.25;22.88;;;24.70;71.10;;;;;;5067931;28;20058;-63
2021/06/04 11:14:24;;;;;;;38.92;19.33;;;24.90;71.60;;;;;;5048382;28;20041;-63
2021/06/04 11:17:04;;;;;;;34.92;18.60;;;24.90;70.90;;;;;;5052701;28;20051;-63
2021/06/04 11:20:03;;;;;;;36.50;21.77;;;24.90;71.20;;;;;;5054417;28;20533;-63
2021/06/04 11:22:32;;;;;;;33.65;21.25;;;24.90;71.00;;;;;;5055555;28;20506;-63
2021/06/04 11:25:16;;;;;;;31.00;19.02;;;25.00;70.20;;;;;;5066511;28;20021;-63
2021/06/04 11:27:46;;;;;;;32.63;18.38;;;25.10;70.10;;;;;;5063710;28;20069;-63
2021/06/04 11:30:20;;;;;;;37.35;19.80;;;25.10;69.30;;;;;;5068904;28;20103;-63
2021/06/04 11:32:58;;;;;;;34.92;18.02;;;25.20;69.60;;;;;;5071222;28;20043;-62
2021/06/04 11:35:31;;;;;;;34.00;20.15;;;25.30;69.30;;;;;;5064566;28;20032;-64
2021/06/04 11:38:02;;;;;;;34.13;18.25;;;25.30;69.70;;;;;;5051946;28;20477;-63
2021/06/04 11:40:36;;;;;;;44.17;21.90;;;25.30;69.70;;;;;;5054379;28;20037;-65
2021/06/04 11:43:08;;;;;;;37.78;17.65;;;25.40;69.00;;;;;;5056770;28;20037;-64
2021/06/04 11:45:36;;;;;;;31.60;20.25;;;25.40;69.20;;;;;;5062218;28;20052;-63
2021/06/04 11:48:20;;;;;;;33.97;17.73;;;25.50;69.70;;;;;;5060752;28;20040;-62
2021/06/04 11:50:47;;;;;;;35.00;20.23;;;25.50;69.80;;;;;;5067915;28;20056;-62
2021/06/04 11:53:32;;;;;;;31.77;18.50;;;25.60;69.60;;;;;;5055511;28;20065;-63
2021/06/04 11:55:59;;;;;;;40.60;25.10;;;25.60;69.40;;;;;;5067082;28;20024;-63
2021/06/04 11:58:30;;;;;;;33.65;21.08;;;25.60;67.60;;;;;;5055897;28;20052;-63
2021/06/04 12:01:22;;;;;;;39.92;24.98;;;25.70;68.10;;;;;;5054966;28;20021;-63
2021/06/04 12:04:00;;;;;;;45.80;25.48;;;25.70;69.50;;;;;;5055867;28;20032;-63
2021/06/04 12:06:27;;;;;;;52.28;31.85;;;25.80;70.80;;;;;;5055416;28;20033;-63
2021/06/04 12:08:55;;;;;;;51.22;26.10;;;25.90;71.50;;;;;;5053916;28;20037;-62
2021/06/04 12:11:21;;;;;;;47.17;25.63;;;25.90;71.50;;;;;;5057336;28;20020;-63
2021/06/04 12:13:51;;;;;;;53.17;27.85;;;25.90;71.50;;;;;;5068149;28;20476;-63
2021/06/04 12:16:26;;;;;;;64.32;37.70;;;26.00;72.00;;;;;;5064560;28;20412;-62
2021/06/04 12:19:03;;;;;;;63.60;38.10;;;25.90;72.50;;;;;;5065424;28;20052;-62
2021/06/04 12:21:38;;;;;;;70.93;39.40;;;25.90;72.30;;;;;;5062807;28;20464;-62
2021/06/04 12:24:24;;;;;;;61.15;37.83;;;26.00;72.90;;;;;;5065983;28;20040;-62
2021/06/04 12:26:54;;;;;;;65.05;36.95;;;25.90;72.90;;;;;;5049917;28;20040;-61
2021/06/04 12:29:23;;;;;;;45.97;27.73;;;26.00;72.90;;;;;;5053523;28;20103;-63
2021/06/04 12:31:54;;;;;;;49.08;25.70;;;26.00;72.50;;;;;;5068763;28;20365;-63
2021/06/04 12:34:50;;;;;;;50.83;30.30;;;26.00;72.40;;;;;;5070745;28;20024;-63
2021/06/04 12:37:22;;;;;;;52.15;29.48;;;25.90;72.90;;;;;;5049805;28;20405;-63
2021/06/04 12:39:51;;;;;;;46.47;26.90;;;26.00;72.40;;;;;;5050404;28;20029;-63
2021/06/04 12:42:19;;;;;;;49.13;28.58;;;25.90;72.60;;;;;;5050617;28;20468;-63
2021/06/04 12:45:00;;;;;;;46.88;27.10;;;25.90;72.60;;;;;;5062008;28;20032;-65
2021/06/04 12:47:38;;;;;;;46.58;27.85;;;25.90;72.70;;;;;;5050479;28;20045;-63
2021/06/04 12:50:44;;;;;;;52.83;31.65;;;25.80;72.80;;;;;;5060091;28;20133;-63
2021/06/04 12:53:12;;;;;;;46.90;27.02;;;25.80;72.90;;;;;;5035498;28;20846;-65
2021/06/04 12:55:43;;;;;;;44.50;27.60;;;25.80;72.70;;;;;;5058689;28;20013;-66
2021/06/04 12:58:12;;;;;;;41.22;26.73;;;25.90;72.70;;;;;;5065210;28;20119;-63